Time;durP1;ratioP1;P1;durP2;ratioP2;P2;SDS_P1;SDS_P2;PMS_P1;PMS_P2;Temp;Humidity;BMP_temperature;BMP_pressure;BME280_temperature;BME280_humidity;BME280_pressure;Samples;Min_cycle;Max_cycle;Signal;HPM_P1;HPM_P2
2022/07/08 00:00:45;;;;;;;3.30;2.50;;;;;;;12.90;73.43;103111.72;10486670;28;20094;-74
2022/07/08 00:05:46;;;;;;;5.38;2.00;;;;;;;12.86;73.47;103113.00;10486557;28;20052;-74
2022/07/08 00:10:46;;;;;;;12.73;2.85;;;;;;;12.77;73.84;103115.69;10501750;28;20056;-74
2022/07/08 00:15:47;;;;;;;6.00;2.55;;;;;;;12.70;73.95;103109.19;10482764;28;20045;-74
2022/07/08 00:20:47;;;;;;;2.45;2.28;;;;;;;12.62;74.24;103111.81;10483641;28;20036;-74
2022/07/08 00:25:47;;;;;;;7.55;2.63;;;;;;;12.50;74.52;103113.06;10485091;28;20032;-74
2022/07/08 00:30:48;;;;;;;14.55;3.33;;;;;;;12.50;74.86;103110.34;10500037;28;20028;-74
2022/07/08 00:35:48;;;;;;;11.15;3.10;;;;;;;12.48;75.16;103109.66;10502175;28;20372;-74
2022/07/08 00:40:48;;;;;;;19.88;8.85;;;;;;;12.51;75.48;103104.78;10482951;28;20040;-74
2022/07/08 00:45:49;;;;;;;16.50;6.10;;;;;;;12.54;75.85;103117.19;10500070;28;20089;-74
2022/07/08 00:50:49;;;;;;;6.28;3.85;;;;;;;12.52;76.01;103108.34;10500617;28;20024;-74
2022/07/08 00:55:50;;;;;;;6.47;3.10;;;;;;;12.42;76.27;103094.00;10498633;28;20037;-74
2022/07/08 01:00:50;;;;;;;11.68;3.63;;;;;;;12.38;76.14;103100.72;10482889;28;20376;-74
2022/07/08 01:05:50;;;;;;;9.38;2.97;;;;;;;12.37;76.75;103099.88;10443954;28;1091714;-73
2022/07/08 01:10:51;;;;;;;8.73;3.30;;;;;;;12.34;76.67;103120.03;10502378;28;20037;-74
2022/07/08 01:15:52;;;;;;;12.02;4.35;;;;;;;12.38;77.33;103108.88;10483746;28;20036;-73
2022/07/08 01:20:52;;;;;;;6.97;1.98;;;;;;;12.33;77.37;103104.75;10502004;28;20036;-74
2022/07/08 01:25:53;;;;;;;14.20;3.38;;;;;;;12.26;77.56;103100.97;10483937;28;20043;-74
2022/07/08 01:30:53;;;;;;;8.55;2.95;;;;;;;12.24;78.17;103108.41;10498864;28;20028;-74
2022/07/08 01:35:53;;;;;;;9.23;2.80;;;;;;;12.23;78.13;103098.56;10501445;28;20448;-73
2022/07/08 01:40:54;;;;;;;3.55;2.67;;;;;;;12.20;78.62;103104.31;10501239;28;20032;-74
2022/07/08 01:45:54;;;;;;;4.10;2.10;;;;;;;12.23;78.85;103109.44;10500372;28;20487;-73
2022/07/08 01:50:54;;;;;;;19.00;3.97;;;;;;;12.23;79.04;103095.84;10500157;28;20064;-73
2022/07/08 01:55:55;;;;;;;11.05;2.67;;;;;;;12.21;79.29;103095.13;10500033;28;20053;-73
2022/07/08 02:00:55;;;;;;;14.90;4.38;;;;;;;12.19;79.43;103102.59;10498697;28;20468;-74
2022/07/08 02:05:56;;;;;;;7.93;3.03;;;;;;;12.19;79.73;103099.88;10499058;28;20071;-74
2022/07/08 02:16:15;;;;;;;8.25;3.05;;;;;;;12.12;80.10;103106.06;10499426;28;20036;-74
2022/07/08 02:21:15;;;;;;;10.88;3.85;;;;;;;12.06;80.44;103102.09;10482380;28;20040;-74
2022/07/08 02:26:16;;;;;;;12.00;3.75;;;;;;;12.05;80.47;103098.53;10499113;28;20114;-74
2022/07/08 02:31:16;;;;;;;3.47;2.90;;;;;;;12.02;80.82;103082.53;10482061;28;20029;-74
2022/07/08 02:36:17;;;;;;;6.28;2.30;;;;;;;12.02;80.86;103082.53;10498854;28;20384;-74
2022/07/08 02:41:17;;;;;;;7.35;2.55;;;;;;;11.98;80.78;103085.75;10498563;28;20033;-73
2022/07/08 02:46:17;;;;;;;6.45;2.58;;;;;;;11.94;81.11;103077.03;10499317;28;20043;-74
2022/07/08 02:51:18;;;;;;;6.68;3.00;;;;;;;11.92;81.31;103070.91;10498510;28;20436;-73
2022/07/08 02:56:18;;;;;;;11.30;3.78;;;;;;;12.00;81.85;103079.16;10499053;28;20037;-73
2022/07/08 03:01:19;;;;;;;4.22;3.13;;;;;;;11.99;81.86;103077.41;10497801;28;20033;-74
2022/07/08 03:06:19;;;;;;;16.15;4.32;;;;;;;11.99;81.78;103079.28;10498713;28;20126;-74
2022/07/08 03:11:19;;;;;;;3.70;2.95;;;;;;;11.96;81.86;103085.88;10496834;28;20025;-73
2022/07/08 03:16:20;;;;;;;4.18;3.10;;;;;;;12.01;82.72;103089.00;10496938;28;20387;-74
2022/07/08 03:21:20;;;;;;;6.00;3.13;;;;;;;12.01;83.00;103074.56;10497280;28;20036;-74
2022/07/08 03:26:20;;;;;;;8.07;3.42;;;;;;;12.02;82.98;103073.56;10497784;28;20063;-74
2022/07/08 03:31:21;;;;;;;10.65;4.25;;;;;;;12.02;83.02;103073.56;10497045;28;20037;-74
2022/07/08 03:36:21;;;;;;;9.00;2.78;;;;;;;12.03;82.75;103083.44;10496962;28;20039;-74
2022/07/08 03:41:23;;;;;;;5.85;2.83;;;;;;;12.05;83.44;103090.38;10497360;28;20086;-74
2022/07/08 03:46:24;;;;;;;12.05;4.97;;;;;;;12.17;83.52;103084.75;10497916;28;20124;-74
2022/07/08 03:51:25;;;;;;;12.88;2.65;;;;;;;12.23;83.92;103082.25;10499021;28;20024;-74
2022/07/08 03:56:25;;;;;;;10.82;4.47;;;;;;;12.28;84.10;103090.81;10504663;28;20036;-74
2022/07/08 04:01:26;;;;;;;7.10;2.47;;;;;;;12.30;83.96;103091.50;10505596;28;20460;-74
2022/07/08 04:06:26;;;;;;;8.20;3.80;;;;;;;12.32;84.29;103078.63;10469344;28;20056;-74
2022/07/08 04:11:26;;;;;;;10.68;3.65;;;;;;;12.36;84.38;103081.03;10485433;28;20036;-73
2022/07/08 04:16:27;;;;;;;4.00;2.45;;;;;;;12.42;84.36;103094.00;10504661;28;20037;-74
2022/07/08 04:21:28;;;;;;;3.00;2.72;;;;;;;12.48;84.90;103088.78;10503971;28;20480;-74
2022/07/08 04:26:31;;;;;;;6.53;3.50;;;;;;;12.59;85.00;103093.09;10504285;28;20086;-74
2022/07/08 04:31:32;;;;;;;6.63;3.22;;;;;;;12.67;85.04;103095.91;10503514;28;20032;-74
2022/07/08 04:36:32;;;;;;;6.10;3.35;;;;;;;12.79;85.45;103099.19;10469915;28;20452;-74
2022/07/08 04:41:33;;;;;;;10.75;4.00;;;;;;;12.98;86.77;103100.88;10503551;28;20102;-74
2022/07/08 04:46:33;;;;;;;5.82;2.95;;;;;;;13.32;86.45;103119.16;10503449;28;20036;-74
2022/07/08 04:51:33;;;;;;;5.70;3.97;;;;;;;14.48;86.20;103122.91;10502673;28;20478;-74
2022/07/08 04:56:34;;;;;;;13.68;4.15;;;;;;;15.62;86.22;103137.47;10502643;28;20040;-74
2022/07/08 05:01:34;;;;;;;11.77;4.40;;;;;;;16.44;85.99;103130.56;10483797;28;20044;-74
2022/07/08 05:06:35;;;;;;;3.85;3.00;;;;;;;17.16;85.43;103135.59;10501755;28;20053;-75
2022/07/08 05:11:35;;;;;;;8.38;3.00;;;;;;;17.75;85.40;103134.75;10483320;28;20071;-73
2022/07/08 05:16:35;;;;;;;3.83;2.53;;;;;;;18.26;85.04;103131.19;10484971;28;20086;-74
2022/07/08 05:21:36;;;;;;;8.20;3.17;;;;;;;18.68;84.76;103133.06;10500851;28;20086;-73
2022/07/08 05:26:37;;;;;;;13.63;2.38;;;;;;;19.14;84.28;103134.50;10484637;28;20041;-76
2022/07/08 05:31:37;;;;;;;7.43;3.70;;;;;;;19.65;83.86;103129.56;10500841;28;20554;-75
2022/07/08 05:36:38;;;;;;;9.52;3.03;;;;;;;20.19;82.82;103134.22;10501267;28;20032;-76
2022/07/08 05:41:38;;;;;;;5.55;3.30;;;;;;;20.60;82.38;103140.69;10500357;28;20037;-76
2022/07/08 05:46:39;;;;;;;7.53;4.53;;;;;;;19.68;82.73;103136.56;10482450;28;20040;-76
2022/07/08 05:51:39;;;;;;;9.85;3.58;;;;;;;19.78;82.00;103133.44;10482181;28;20036;-76
2022/07/08 05:56:40;;;;;;;8.43;2.33;;;;;;;20.67;80.78;103139.63;10481955;28;20041;-75
2022/07/08 06:01:40;;;;;;;5.80;2.28;;;;;;;21.23;77.91;103137.50;10482248;28;20376;-76
2022/07/08 06:06:41;;;;;;;4.38;2.03;;;;;;;21.78;77.26;103140.75;10498932;28;20056;-76
2022/07/08 06:11:41;;;;;;;8.98;2.28;;;;;;;22.25;75.47;103146.94;10464731;28;20436;-75
2022/07/08 06:16:42;;;;;;;5.10;1.95;;;;;;;22.79;74.02;103148.25;10481518;28;20048;-76
2022/07/08 06:21:42;;;;;;;14.98;2.10;;;;;;;23.36;71.63;103157.34;10464751;28;20028;-76
2022/07/08 06:26:46;;;;;;;13.25;2.83;;;;;;;22.97;73.65;103155.78;10500707;28;20039;-76
2022/07/08 06:31:46;;;;;;;3.33;2.63;;;;;;;22.49;72.61;103162.72;10497719;28;20044;-76
2022/07/08 06:36:47;;;;;;;4.85;2.13;;;;;;;23.01;70.70;103161.72;10499359;28;20036;-76
2022/07/08 06:41:47;;;;;;;8.55;2.10;;;;;;;22.04;72.36;103168.22;10499658;28;20353;-76
2022/07/08 06:46:47;;;;;;;12.13;2.28;;;;;;;21.75;72.20;103180.66;10499073;28;20368;-76
2022/07/08 06:51:48;;;;;;;5.15;2.05;;;;;;;21.74;72.09;103165.19;10498314;28;20387;-76
2022/07/08 06:56:48;;;;;;;10.23;2.42;;;;;;;22.17;67.22;103172.03;10498856;28;20060;-76
2022/07/08 07:01:48;;;;;;;6.22;1.88;;;;;;;22.69;69.33;103170.03;10499432;28;20452;-76
2022/07/08 07:06:49;;;;;;;6.07;2.70;;;;;;;22.93;68.75;103171.09;10480210;28;20068;-76
2022/07/08 07:11:49;;;;;;;3.95;2.35;;;;;;;23.46;65.07;103164.25;10481595;28;20076;-76
2022/07/08 07:16:50;;;;;;;4.70;2.40;;;;;;;23.20;66.85;103160.69;10463367;28;20472;-77
2022/07/08 07:21:50;;;;;;;3.72;2.10;;;;;;;23.28;64.10;103162.31;10480268;28;20047;-76
2022/07/08 07:26:51;;;;;;;11.75;2.10;;;;;;;23.46;64.72;103164.25;10501459;28;20136;-76
2022/07/08 07:31:51;;;;;;;3.20;1.52;;;;;;;24.49;64.27;103166.16;10487807;28;20029;-76
2022/07/08 07:36:51;;;;;;;5.28;1.52;;;;;;;24.57;63.65;103165.84;10486762;28;20530;-76
2022/07/08 07:41:52;;;;;;;1.38;1.33;;;;;;;24.75;59.85;103168.50;10487376;28;20031;-76
2022/07/08 07:46:52;;;;;;;2.60;2.03;;;;;;;25.87;60.96;103167.56;10504865;28;20044;-76
2022/07/08 07:51:53;;;;;;;7.90;2.17;;;;;;;26.54;57.60;103154.97;10504765;28;20079;-76
2022/07/08 07:56:53;;;;;;;6.15;2.50;;;;;;;26.89;59.35;103154.75;10486831;28;20309;-77
2022/07/08 08:01:53;;;;;;;2.60;1.90;;;;;;;27.34;58.87;103151.00;10504250;28;20360;-77
2022/07/08 08:06:54;;;;;;;1.60;1.50;;;;;;;26.62;59.55;103149.88;10504512;28;20053;-77
2022/07/08 08:11:54;;;;;;;3.60;2.08;;;;;;;26.70;58.31;103145.81;10504309;28;20025;-77
2022/07/08 08:16:54;;;;;;;1.73;1.58;;;;;;;27.21;52.31;103151.38;10485894;28;20408;-77
2022/07/08 08:21:55;;;;;;;3.33;1.45;;;;;;;27.73;51.92;103151.00;10503636;28;20036;-77
2022/07/08 08:26:55;;;;;;;1.75;1.52;;;;;;;27.97;49.47;103151.59;10503950;28;20368;-77
2022/07/08 08:31:56;;;;;;;2.33;1.60;;;;;;;28.18;49.84;103147.09;10503031;28;20044;-77
2022/07/08 08:36:56;;;;;;;4.95;2.13;;;;;;;28.53;48.03;103146.63;10502795;28;20285;-77
2022/07/08 08:41:57;;;;;;;10.77;1.98;;;;;;;28.94;49.07;103153.38;10502959;28;20035;-77
2022/07/08 08:46:58;;;;;;;1.50;1.27;;;;;;;29.34;49.58;103146.41;10502835;28;20115;-77
2022/07/08 08:51:58;;;;;;;1.97;1.70;;;;;;;29.34;49.45;103149.19;10503678;28;20463;-77
2022/07/08 08:56:58;;;;;;;7.53;1.90;;;;;;;29.62;47.54;103147.16;10484050;28;20640;-77
2022/07/08 09:02:00;;;;;;;5.25;1.70;;;;;;;29.82;45.37;103138.84;10467493;28;20039;-77
2022/07/08 09:07:00;;;;;;;1.23;1.13;;;;;;;29.73;46.12;103148.03;10484229;28;20049;-78
2022/07/08 09:12:17;;;;;;;0.98;0.98;;;;;;;29.97;46.47;103149.22;10501599;28;20096;-77
2022/07/08 09:17:18;;;;;;;6.38;1.73;;;;;;;30.06;45.39;103143.94;10483021;28;20029;-78
2022/07/08 09:22:22;;;;;;;2.13;1.90;;;;;;;29.96;44.19;103146.69;10500213;28;20036;-78
2022/07/08 09:27:22;;;;;;;1.35;1.25;;;;;;;30.02;42.56;103142.81;10500844;28;20067;-78
2022/07/08 09:32:23;;;;;;;1.85;1.13;;;;;;;30.38;43.57;103140.97;10500308;28;20032;-78
2022/07/08 09:37:23;;;;;;;6.85;1.63;;;;;;;30.18;41.72;103150.09;10483727;28;20384;-78
2022/07/08 09:42:24;;;;;;;1.35;1.35;;;;;;;30.17;39.95;103147.59;10499988;28;20033;-77
2022/07/08 09:47:24;;;;;;;1.25;1.15;;;;;;;30.33;40.41;103144.56;10466572;28;20033;-77
2022/07/08 09:52:25;;;;;;;1.85;0.65;;;;;;;30.65;41.54;103160.25;10483361;28;20208;-77
2022/07/08 09:57:25;;;;;;;1.85;1.75;;;;;;;30.73;40.37;103151.31;10500428;28;20036;-77
2022/07/08 10:02:27;;;;;;;2.40;1.35;;;;;;;30.64;40.42;103141.81;10481613;28;20189;-77
2022/07/08 10:07:27;;;;;;;1.77;1.15;;;;;;;30.88;41.01;103152.44;10499334;28;20040;-78
2022/07/08 10:12:28;;;;;;;10.95;1.23;;;;;;;31.16;40.06;103145.41;10481470;28;20033;-78
2022/07/08 10:17:28;;;;;;;6.80;2.27;;;;;;;31.51;41.31;103155.69;10481291;28;20032;-78
2022/07/08 10:22:29;;;;;;;1.92;1.58;;;;;;;31.37;38.17;103154.63;10498913;28;20744;-78
2022/07/08 10:27:29;;;;;;;2.00;1.35;;;;;;;31.28;38.42;103155.19;10465745;28;20040;-77
2022/07/08 10:32:30;;;;;;;1.63;1.00;;;;;;;31.45;38.70;103156.84;10498639;28;20044;-77
2022/07/08 10:38:04;;;;;;;3.40;1.33;;;;;;;31.16;36.52;103143.44;10498743;28;20806;-78
2022/07/08 10:43:06;;;;;;;0.90;0.90;;;;;;;31.37;38.26;103154.63;10498054;28;20032;-77
2022/07/08 10:48:06;;;;;;;1.83;1.73;;;;;;;31.35;32.70;103135.31;10481143;28;20138;-77
2022/07/08 10:53:07;;;;;;;2.00;1.10;;;;;;;31.27;36.51;103138.66;10480716;28;20029;-77
2022/07/08 10:58:07;;;;;;;3.13;1.25;;;;;;;31.74;35.64;103138.22;10496956;28;20436;-77
2022/07/08 11:03:11;;;;;;;1.40;1.30;;;;;;;31.37;35.67;103135.03;10504333;28;20112;-77
2022/07/08 11:08:20;;;;;;;8.77;2.17;;;;;;;31.64;36.02;103138.28;10506343;28;20055;-77
2022/07/08 11:13:21;;;;;;;3.38;1.35;;;;;;;31.46;36.49;103136.09;10507088;28;20040;-77
2022/07/08 11:18:23;;;;;;;5.10;3.05;;;;;;;31.30;36.32;103138.09;10488420;28;20029;-77
2022/07/08 11:23:23;;;;;;;2.63;1.98;;;;;;;31.30;34.97;103129.69;10488186;28;20161;-77
2022/07/08 11:28:24;;;;;;;7.45;1.42;;;;;;;31.38;33.02;103133.91;10506167;28;20160;-77
2022/07/08 11:33:40;;;;;;;5.88;2.88;;;;;;;31.20;35.46;103138.94;10489543;28;20448;-77
2022/07/08 11:38:40;;;;;;;1.33;1.23;;;;;;;31.01;34.19;103123.88;10506007;28;20064;-77
2022/07/08 11:43:42;;;;;;;5.53;1.40;;;;;;;30.87;33.22;103126.44;10504597;28;20053;-77
2022/07/08 11:48:43;;;;;;;4.40;1.45;;;;;;;31.05;34.65;103139.00;10505304;28;20036;-76
2022/07/08 11:53:44;;;;;;;1.92;1.75;;;;;;;30.93;36.06;103135.66;10505740;28;20040;-77
2022/07/08 11:58:44;;;;;;;1.50;1.20;;;;;;;31.24;36.38;103140.09;10502875;28;20025;-77
2022/07/08 12:03:45;;;;;;;1.88;1.55;;;;;;;31.38;36.32;103143.16;10487632;28;20036;-77
2022/07/08 12:08:45;;;;;;;2.78;1.50;;;;;;;31.28;36.28;103143.16;10504441;28;20083;-77
2022/07/08 12:13:48;;;;;;;2.92;1.77;;;;;;;31.05;35.12;103127.81;10485578;28;20170;-77
2022/07/08 12:18:48;;;;;;;2.63;1.90;;;;;;;31.18;36.39;103132.81;10486560;28;20111;-77
2022/07/08 12:23:56;;;;;;;3.85;1.80;;;;;;;31.28;36.63;103127.19;10469222;28;20488;-77
2022/07/08 12:28:57;;;;;;;1.42;1.33;;;;;;;31.31;36.60;103130.56;10485663;28;20043;-77
2022/07/08 12:34:01;;;;;;;7.32;2.63;;;;;;;30.85;35.53;103122.25;10503509;28;20046;-77
2022/07/08 12:39:16;;;;;;;4.87;2.37;;;;;;;30.70;35.27;103125.88;10502509;28;20036;-76
2022/07/08 12:44:36;;;;;;;15.45;2.13;;;;;;;30.58;37.58;103142.94;10503883;28;20533;-76
2022/07/08 12:49:37;;;;;;;6.25;2.20;;;;;;;30.45;36.36;103126.72;10502689;28;20452;-76
2022/07/08 12:54:39;;;;;;;14.80;2.42;;;;;;;30.47;37.98;103127.25;10501416;28;20033;-76
2022/07/08 12:59:39;;;;;;;3.15;1.95;;;;;;;29.56;37.58;103131.44;10501066;28;20399;-76
2022/07/08 13:04:40;;;;;;;3.20;1.85;;;;;;;28.91;39.26;103126.03;10502570;28;20032;-76
2022/07/08 13:09:40;;;;;;;4.22;1.92;;;;;;;28.88;39.33;103131.31;10484208;28;20059;-76
2022/07/08 13:14:41;;;;;;;5.22;2.28;;;;;;;28.56;39.31;103134.97;10485315;28;20476;-76
2022/07/08 13:19:42;;;;;;;2.42;1.52;;;;;;;28.39;39.65;103129.44;10483637;28;20031;-76
2022/07/08 13:24:42;;;;;;;3.88;2.10;;;;;;;28.72;38.52;103121.97;10483331;28;20033;-76
2022/07/08 13:29:43;;;;;;;2.35;1.85;;;;;;;28.56;39.30;103125.72;10484168;28;20073;-76
2022/07/08 13:34:43;;;;;;;3.88;1.88;;;;;;;28.65;38.95;103113.81;10482966;28;20547;-76
2022/07/08 13:39:44;;;;;;;3.78;2.05;;;;;;;28.69;38.62;103106.63;10500661;28;20092;-76
2022/07/08 13:44:45;;;;;;;2.22;1.85;;;;;;;29.13;39.03;103099.97;10499137;28;20032;-76
2022/07/08 13:49:45;;;;;;;3.83;2.20;;;;;;;29.49;38.82;103105.75;10499537;28;20067;-76
2022/07/08 13:54:48;;;;;;;1.42;1.33;;;;;;;29.62;37.57;103085.72;10500579;28;20060;-76
2022/07/08 13:59:49;;;;;;;3.17;1.95;;;;;;;29.41;36.81;103104.28;10497968;28;20084;-76
2022/07/08 14:04:49;;;;;;;4.80;2.08;;;;;;;29.20;37.49;103089.41;10501310;28;20064;-75
2022/07/08 14:09:50;;;;;;;6.22;1.92;;;;;;;28.95;37.99;103085.31;10500931;28;20052;-76
2022/07/08 14:14:51;;;;;;;1.88;1.70;;;;;;;28.96;38.55;103073.06;10481947;28;20044;-76
2022/07/08 14:19:51;;;;;;;2.17;1.98;;;;;;;29.26;37.79;103082.75;10483042;28;20037;-76
2022/07/08 14:24:52;;;;;;;2.83;2.15;;;;;;;29.02;37.16;103084.28;10465163;28;20041;-75
2022/07/08 14:29:53;;;;;;;1.65;1.55;;;;;;;28.86;38.13;103081.34;10499432;28;20036;-76
2022/07/08 14:34:53;;;;;;;4.35;2.40;;;;;;;29.07;38.53;103081.50;10482263;28;20093;-76
2022/07/08 14:39:54;;;;;;;3.33;2.15;;;;;;;29.03;38.95;103085.94;10480823;28;20452;-76
2022/07/08 14:44:55;;;;;;;2.50;1.92;;;;;;;29.23;39.07;103083.28;10464424;28;20040;-76
2022/07/08 14:49:55;;;;;;;2.90;2.70;;;;;;;29.25;40.09;103069.06;10497323;28;20032;-76
2022/07/08 14:54:56;;;;;;;2.25;2.15;;;;;;;28.67;40.76;103072.59;10480937;28;20095;-76
2022/07/08 14:59:56;;;;;;;6.32;2.88;;;;;;;28.50;42.53;103080.25;10497683;28;20056;-76
2022/07/08 15:04:57;;;;;;;2.50;2.30;;;;;;;28.00;43.71;103073.91;10480822;28;20082;-76
2022/07/08 15:09:57;;;;;;;7.43;2.55;;;;;;;27.77;44.73;103079.81;10499512;28;20201;-76
2022/07/08 15:14:58;;;;;;;3.65;3.00;;;;;;;27.83;45.02;103072.34;10480060;28;20040;-76
2022/07/08 15:19:59;;;;;;;3.70;3.17;;;;;;;27.49;46.13;103066.91;10497902;28;20384;-76
2022/07/08 15:24:59;;;;;;;9.35;3.05;;;;;;;27.43;46.58;103067.94;10479312;28;20075;-76
2022/07/08 15:30:00;;;;;;;3.78;3.10;;;;;;;27.01;46.85;103057.34;10495865;28;20032;-76
2022/07/08 15:35:01;;;;;;;14.27;2.55;;;;;;;26.72;48.10;103045.50;10479510;28;20048;-76
2022/07/08 15:40:02;;;;;;;4.38;2.50;;;;;;;26.62;48.55;103052.59;10479485;28;20491;-76
2022/07/08 15:45:02;;;;;;;4.97;2.65;;;;;;;26.65;49.11;103051.25;10479339;28;20032;-76
2022/07/08 15:50:03;;;;;;;3.05;2.75;;;;;;;26.48;49.40;103036.47;10503644;28;20087;-76
2022/07/08 15:55:05;;;;;;;4.55;3.03;;;;;;;26.26;50.58;103039.16;10486880;28;20087;-75
2022/07/08 16:00:06;;;;;;;4.07;2.83;;;;;;;26.13;50.79;103041.19;10486785;28;20051;-76
2022/07/08 16:05:07;;;;;;;5.82;3.03;;;;;;;26.04;50.98;103036.28;10486411;28;20036;-75
2022/07/08 16:10:08;;;;;;;3.65;2.85;;;;;;;25.82;52.50;103027.84;10503582;28;20036;-75
2022/07/08 16:15:09;;;;;;;5.60;3.58;;;;;;;25.57;51.97;103033.72;10504732;28;20043;-75
2022/07/08 16:20:10;;;;;;;2.53;2.22;;;;;;;25.26;52.35;103024.75;10503967;28;20033;-75
2022/07/08 16:25:11;;;;;;;11.18;2.45;;;;;;;24.97;52.87;103024.66;10503405;28;20388;-76
2022/07/08 16:30:11;;;;;;;2.67;2.42;;;;;;;24.24;53.41;103014.84;10484891;28;20038;-75
2022/07/08 16:35:12;;;;;;;4.78;2.45;;;;;;;23.92;53.32;103011.53;10502873;28;20043;-76
2022/07/08 16:40:12;;;;;;;6.22;3.35;;;;;;;23.71;52.71;103012.03;10485554;28;20035;-75
2022/07/08 16:45:13;;;;;;;11.23;3.42;;;;;;;23.40;52.84;103019.47;10486172;28;20119;-75
2022/07/08 16:50:14;;;;;;;8.70;2.90;;;;;;;23.13;53.88;103002.34;10502800;28;20464;-75
2022/07/08 16:55:14;;;;;;;8.88;2.28;;;;;;;22.92;55.47;103001.72;10484702;28;20059;-75
2022/07/08 17:00:15;;;;;;;6.70;2.85;;;;;;;22.86;55.82;102999.84;10483959;28;20032;-75
2022/07/08 17:05:15;;;;;;;3.58;2.38;;;;;;;22.77;55.51;102992.94;10500883;28;20121;-75
2022/07/08 17:10:16;;;;;;;6.80;3.95;;;;;;;22.63;54.53;102992.25;10485327;28;20476;-75
2022/07/08 17:15:17;;;;;;;12.07;2.92;;;;;;;22.61;54.94;102991.63;10502279;28;20043;-75
2022/07/08 17:20:17;;;;;;;2.97;2.75;;;;;;;22.53;55.15;102989.16;10501677;28;20032;-75
2022/07/08 17:25:18;;;;;;;4.93;3.05;;;;;;;22.47;56.62;102995.59;10466978;28;20041;-75
2022/07/08 17:30:19;;;;;;;9.18;3.20;;;;;;;22.28;57.05;102991.94;10500069;28;20024;-75
2022/07/08 17:35:19;;;;;;;5.22;4.03;;;;;;;22.14;56.55;102991.13;10483701;28;20064;-75
2022/07/08 17:40:21;;;;;;;3.30;3.00;;;;;;;21.97;58.37;102990.84;10500806;28;20445;-75
2022/07/08 17:45:22;;;;;;;4.03;3.10;;;;;;;21.79;57.88;102988.88;10483556;28;20067;-75
2022/07/08 17:50:23;;;;;;;3.20;2.95;;;;;;;21.66;58.43;102994.44;10499220;28;20029;-75
2022/07/08 17:55:24;;;;;;;12.60;4.25;;;;;;;21.53;58.89;102984.31;10499654;28;20029;-75
2022/07/08 18:00:24;;;;;;;5.28;4.35;;;;;;;21.47;58.14;102984.38;10498264;28;20036;-75
2022/07/08 18:05:25;;;;;;;17.05;4.57;;;;;;;21.46;58.43;102979.94;10465655;28;20037;-75
2022/07/08 18:10:26;;;;;;;11.25;4.38;;;;;;;21.39;59.29;102970.84;10480675;28;20044;-75
2022/07/08 18:15:26;;;;;;;5.20;3.88;;;;;;;21.32;58.77;102968.09;10481517;28;20032;-75
2022/07/08 18:20:27;;;;;;;6.00;3.60;;;;;;;21.22;58.98;102965.81;10499347;28;20456;-75
2022/07/08 18:25:27;;;;;;;7.53;3.45;;;;;;;21.11;59.90;102964.56;10498047;28;20464;-75
2022/07/08 18:30:28;;;;;;;7.70;4.30;;;;;;;21.03;59.44;102973.09;10480987;28;20093;-75
2022/07/08 18:35:29;;;;;;;4.75;3.83;;;;;;;20.90;60.69;102973.13;10481013;28;20032;-75
2022/07/08 18:40:29;;;;;;;5.88;3.72;;;;;;;20.78;61.20;102955.59;10498813;28;20041;-72
2022/07/08 18:45:30;;;;;;;8.82;4.10;;;;;;;20.70;60.65;102961.31;10497971;28;20196;-72
2022/07/08 18:50:31;;;;;;;12.88;4.07;;;;;;;20.56;61.63;102955.84;10480354;28;20040;-71
2022/07/08 18:55:31;;;;;;;8.18;4.05;;;;;;;20.40;61.29;102959.84;10497907;28;20033;-71
2022/07/08 19:00:32;;;;;;;8.80;4.20;;;;;;;20.21;61.81;102956.03;10496622;28;20037;-71
2022/07/08 19:05:32;;;;;;;10.40;4.47;;;;;;;20.09;61.90;102971.47;10498164;28;20048;-70
2022/07/08 19:10:32;;;;;;;7.45;4.43;;;;;;;19.94;63.40;102966.19;10480795;28;20025;-71
2022/07/08 19:15:33;;;;;;;7.90;4.38;;;;;;;19.80;64.24;102960.88;10479997;28;20075;-70
2022/07/08 19:20:34;;;;;;;8.27;5.07;;;;;;;19.64;63.95;102957.47;10496609;28;20115;-71
2022/07/08 19:25:34;;;;;;;16.23;5.40;;;;;;;19.51;63.95;102960.16;10472286;28;20037;-71
2022/07/08 19:30:35;;;;;;;9.02;5.30;;;;;;;19.41;64.69;102962.44;10505954;28;20357;-70
2022/07/08 19:35:35;;;;;;;7.07;4.88;;;;;;;19.27;64.86;102958.78;10505858;28;20086;-71
2022/07/08 19:40:36;;;;;;;7.38;5.47;;;;;;;19.18;65.24;102958.16;10505044;28;20031;-71
2022/07/08 19:45:36;;;;;;;7.43;4.20;;;;;;;19.08;65.24;102960.44;10504194;28;20071;-71
2022/07/08 19:50:37;;;;;;;9.63;4.63;;;;;;;18.95;65.95;102965.81;10505148;28;20045;-70
2022/07/08 19:55:37;;;;;;;11.52;6.07;;;;;;;18.80;66.74;102955.84;10503926;28;20476;-70
2022/07/08 20:00:37;;;;;;;7.93;5.20;;;;;;;18.69;66.80;102964.59;10506293;28;20115;-71
2022/07/08 20:05:38;;;;;;;8.30;4.97;;;;;;;18.59;66.63;102970.44;10501479;28;20142;-71
2022/07/08 20:10:39;;;;;;;11.05;5.63;;;;;;;18.49;67.27;102971.84;10463681;28;20111;-71
2022/07/08 20:15:39;;;;;;;8.27;5.25;;;;;;;18.40;67.38;102984.88;10464065;28;20063;-71
2022/07/08 20:20:40;;;;;;;11.05;6.28;;;;;;;18.35;67.68;102977.25;10478161;28;20032;-70
2022/07/08 20:25:40;;;;;;;7.05;6.35;;;;;;;18.27;68.65;102977.38;10462493;28;20037;-71
2022/07/08 20:30:41;;;;;;;7.15;6.35;;;;;;;18.21;69.22;102975.41;10462277;28;20068;-70
2022/07/08 20:35:41;;;;;;;7.88;6.95;;;;;;;18.16;69.65;102969.69;10462259;28;20048;-70
2022/07/08 20:42:38;;;;;;;13.02;8.68;;;;;;;18.09;70.11;102955.06;10463028;28;20040;-70
2022/07/08 20:46:02;;;;;;;11.23;7.20;;;;;;;18.02;70.88;102957.75;10473946;28;20033;-71
2022/07/08 20:51:03;;;;;;;11.77;8.35;;;;;;;17.98;70.72;102952.88;10442987;28;20037;-70
2022/07/08 20:56:04;;;;;;;8.25;7.40;;;;;;;17.91;71.00;102952.81;10460843;28;20068;-70
2022/07/08 21:01:04;;;;;;;22.60;10.93;;;;;;;17.86;71.35;102941.56;10460677;28;20099;-70
2022/07/08 21:06:05;;;;;;;9.05;7.80;;;;;;;17.82;71.15;102941.13;10469197;28;20126;-70
2022/07/08 21:11:05;;;;;;;17.40;9.88;;;;;;;17.76;71.63;102933.66;10502425;28;20353;-70
2022/07/08 21:16:06;;;;;;;13.02;8.43;;;;;;;17.71;71.72;102935.28;10502402;28;20431;-70
2022/07/08 21:21:06;;;;;;;13.85;11.73;;;;;;;17.71;73.04;102935.28;10501201;28;20045;-70
2022/07/08 21:26:07;;;;;;;15.48;9.25;;;;;;;17.69;73.82;102930.00;10501563;28;20408;-70
2022/07/08 21:31:07;;;;;;;12.95;8.25;;;;;;;17.67;74.91;102926.59;10501215;28;20060;-74
2022/07/08 21:36:08;;;;;;;9.32;8.27;;;;;;;17.67;74.40;102927.44;10502240;28;20039;-74
2022/07/08 21:41:09;;;;;;;11.13;6.65;;;;;;;17.62;74.38;102929.09;10500390;28;20060;-73
2022/07/08 21:46:11;;;;;;;9.65;6.63;;;;;;;17.58;74.10;102928.63;10498586;28;20037;-75
2022/07/08 21:51:12;;;;;;;9.45;7.80;;;;;;;17.50;74.46;102925.16;10498699;28;20086;-74
2022/07/08 21:56:12;;;;;;;15.68;8.45;;;;;;;17.47;74.98;102917.34;10500340;28;20038;-74
2022/07/08 22:01:13;;;;;;;12.80;9.95;;;;;;;17.43;74.74;102916.88;10500067;28;20039;-74
2022/07/08 22:06:13;;;;;;;21.58;12.15;;;;;;;17.42;75.15;102913.28;10500696;28;20400;-74
2022/07/08 22:11:14;;;;;;;15.68;8.73;;;;;;;17.38;75.47;102911.97;10499816;28;20438;-74
2022/07/08 22:16:16;;;;;;;11.65;7.18;;;;;;;17.35;75.23;102920.56;10482152;28;20120;-74
2022/07/08 22:21:16;;;;;;;12.73;9.05;;;;;;;17.34;75.25;102929.00;10500032;28;20549;-74
2022/07/08 22:26:17;;;;;;;12.73;9.60;;;;;;;17.28;75.38;102916.06;10499204;28;20119;-74
2022/07/08 22:31:17;;;;;;;20.73;10.43;;;;;;;17.22;75.51;102920.41;10481381;28;20112;-74
2022/07/08 22:36:24;;;;;;;13.45;10.93;;;;;;;17.17;75.82;102920.16;10499568;28;20052;-74
2022/07/08 22:41:24;;;;;;;12.20;9.32;;;;;;;17.12;75.70;102912.50;10481623;28;20043;-74
2022/07/08 22:46:25;;;;;;;17.83;11.32;;;;;;;17.10;76.66;102900.06;10496929;28;20039;-74
2022/07/08 22:51:25;;;;;;;15.13;10.18;;;;;;;17.07;76.63;102905.91;10498049;28;20464;-74
2022/07/08 22:56:26;;;;;;;17.85;11.82;;;;;;;17.04;76.83;102898.97;10479964;28;20040;-74
2022/07/08 23:01:28;;;;;;;19.23;13.60;;;;;;;17.00;76.91;102891.31;10497974;28;20112;-74